sensor_id;sensor_type;location;lat;lon;timestamp;temperature;humidity
40600;DHT22;26309;50.924;4.754;2022-09-09T00:02:05;15.10;99.90
40600;DHT22;26309;50.924;4.754;2022-09-09T00:04:36;15.10;99.90
40600;DHT22;26309;50.924;4.754;2022-09-09T00:21:14;15.10;99.90
40600;DHT22;26309;50.924;4.754;2022-09-09T00:24:04;15.10;99.90
40600;DHT22;26309;50.924;4.754;2022-09-09T00:26:53;15.10;99.90
40600;DHT22;26309;50.924;4.754;2022-09-09T00:29:40;15.10;99.90
40600;DHT22;26309;50.924;4.754;2022-09-09T00:32:17;15.00;99.90
40600;DHT22;26309;50.924;4.754;2022-09-09T00:34:52;15.00;99.90
40600;DHT22;26309;50.924;4.754;2022-09-09T00:37:20;15.00;99.90
40600;DHT22;26309;50.924;4.754;2022-09-09T00:39:48;15.00;99.90
40600;DHT22;26309;50.924;4.754;2022-09-09T00:42:25;14.90;99.90
40600;DHT22;26309;50.924;4.754;2022-09-09T00:47:49;15.00;99.90
40600;DHT22;26309;50.924;4.754;2022-09-09T00:56:14;15.10;99.90
40600;DHT22;26309;50.924;4.754;2022-09-09T00:58:51;15.10;99.90
40600;DHT22;26309;50.924;4.754;2022-09-09T01:01:21;15.10;99.90
40600;DHT22;26309;50.924;4.754;2022-09-09T01:03:55;15.20;99.90
40600;DHT22;26309;50.924;4.754;2022-09-09T01:06:33;15.30;99.90
40600;DHT22;26309;50.924;4.754;2022-09-09T01:09:13;15.30;99.90
40600;DHT22;26309;50.924;4.754;2022-09-09T01:14:49;15.40;99.90
40600;DHT22;26309;50.924;4.754;2022-09-09T01:17:27;15.40;99.90
40600;DHT22;26309;50.924;4.754;2022-09-09T01:27:58;15.50;99.90
40600;DHT22;26309;50.924;4.754;2022-09-09T01:30:26;15.50;99.90
40600;DHT22;26309;50.924;4.754;2022-09-09T01:32:58;15.50;99.90
40600;DHT22;26309;50.924;4.754;2022-09-09T01:35:40;15.50;99.90
40600;DHT22;26309;50.924;4.754;2022-09-09T01:38:08;15.50;99.90
40600;DHT22;26309;50.924;4.754;2022-09-09T01:40:34;15.50;99.90
40600;DHT22;26309;50.924;4.754;2022-09-09T01:43:01;15.50;99.90
40600;DHT22;26309;50.924;4.754;2022-09-09T01:45:27;15.50;99.90
40600;DHT22;26309;50.924;4.754;2022-09-09T01:47:53;15.60;99.90
40600;DHT22;26309;50.924;4.754;2022-09-09T01:50:20;15.50;99.90
40600;DHT22;26309;50.924;4.754;2022-09-09T01:52:50;15.60;99.90
40600;DHT22;26309;50.924;4.754;2022-09-09T01:55:19;15.50;99.90
40600;DHT22;26309;50.924;4.754;2022-09-09T02:04:26;15.40;99.90
40600;DHT22;26309;50.924;4.754;2022-09-09T02:06:56;15.40;99.90
40600;DHT22;26309;50.924;4.754;2022-09-09T02:09:26;15.40;99.90
40600;DHT22;26309;50.924;4.754;2022-09-09T02:12:05;15.40;99.90
40600;DHT22;26309;50.924;4.754;2022-09-09T02:14:37;15.40;99.90
40600;DHT22;26309;50.924;4.754;2022-09-09T02:17:10;15.40;99.90
40600;DHT22;26309;50.924;4.754;2022-09-09T02:19:41;15.30;99.90
40600;DHT22;26309;50.924;4.754;2022-09-09T02:22:09;15.40;99.90
40600;DHT22;26309;50.924;4.754;2022-09-09T02:24:37;15.40;99.90
40600;DHT22;26309;50.924;4.754;2022-09-09T02:27:06;15.40;99.90
40600;DHT22;26309;50.924;4.754;2022-09-09T02:29:42;15.40;99.90
40600;DHT22;26309;50.924;4.754;2022-09-09T02:32:14;15.50;99.90
40600;DHT22;26309;50.924;4.754;2022-09-09T02:34:47;15.40;99.90
40600;DHT22;26309;50.924;4.754;2022-09-09T02:37:19;15.40;99.90
40600;DHT22;26309;50.924;4.754;2022-09-09T02:39:46;15.40;99.90
40600;DHT22;26309;50.924;4.754;2022-09-09T02:42:13;15.40;99.90
40600;DHT22;26309;50.924;4.754;2022-09-09T02:44:41;15.40;99.90
40600;DHT22;26309;50.924;4.754;2022-09-09T02:47:34;15.50;99.90
40600;DHT22;26309;50.924;4.754;2022-09-09T02:55:06;15.40;99.90
40600;DHT22;26309;50.924;4.754;2022-09-09T02:57:35;15.40;99.90
40600;DHT22;26309;50.924;4.754;2022-09-09T03:00:03;15.40;99.90
40600;DHT22;26309;50.924;4.754;2022-09-09T03:02:29;15.50;99.90
40600;DHT22;26309;50.924;4.754;2022-09-09T03:04:55;15.50;99.90
40600;DHT22;26309;50.924;4.754;2022-09-09T03:07:22;15.50;99.90
40600;DHT22;26309;50.924;4.754;2022-09-09T03:09:48;15.50;99.90
40600;DHT22;26309;50.924;4.754;2022-09-09T03:12:14;15.50;99.90
40600;DHT22;26309;50.924;4.754;2022-09-09T03:14:40;15.50;99.90
40600;DHT22;26309;50.924;4.754;2022-09-09T03:17:06;15.60;99.90
40600;DHT22;26309;50.924;4.754;2022-09-09T03:19:32;15.50;99.90
40600;DHT22;26309;50.924;4.754;2022-09-09T03:21:58;15.60;99.90
40600;DHT22;26309;50.924;4.754;2022-09-09T03:24:24;15.50;99.90
40600;DHT22;26309;50.924;4.754;2022-09-09T03:26:50;15.50;99.90
40600;DHT22;26309;50.924;4.754;2022-09-09T03:29:16;15.50;99.90
40600;DHT22;26309;50.924;4.754;2022-09-09T03:31:44;15.50;99.90
40600;DHT22;26309;50.924;4.754;2022-09-09T03:34:10;15.50;99.90
40600;DHT22;26309;50.924;4.754;2022-09-09T03:36:36;15.50;99.90
40600;DHT22;26309;50.924;4.754;2022-09-09T03:39:03;15.50;99.90
40600;DHT22;26309;50.924;4.754;2022-09-09T03:41:29;15.50;99.90
40600;DHT22;26309;50.924;4.754;2022-09-09T03:43:55;15.50;99.90
40600;DHT22;26309;50.924;4.754;2022-09-09T03:46:23;15.50;99.90
40600;DHT22;26309;50.924;4.754;2022-09-09T03:48:49;15.50;99.90
40600;DHT22;26309;50.924;4.754;2022-09-09T03:51:15;15.50;99.90
40600;DHT22;26309;50.924;4.754;2022-09-09T03:53:42;15.50;99.90
40600;DHT22;26309;50.924;4.754;2022-09-09T03:56:09;15.50;99.90
40600;DHT22;26309;50.924;4.754;2022-09-09T03:58:36;15.50;99.90
40600;DHT22;26309;50.924;4.754;2022-09-09T04:01:07;15.50;99.90
40600;DHT22;26309;50.924;4.754;2022-09-09T04:03:36;15.50;99.90
40600;DHT22;26309;50.924;4.754;2022-09-09T04:06:04;15.50;99.90
40600;DHT22;26309;50.924;4.754;2022-09-09T04:08:31;15.50;99.90
40600;DHT22;26309;50.924;4.754;2022-09-09T04:10:57;15.60;99.90
40600;DHT22;26309;50.924;4.754;2022-09-09T04:13:24;15.50;99.90
40600;DHT22;26309;50.924;4.754;2022-09-09T04:15:52;15.50;99.90
40600;DHT22;26309;50.924;4.754;2022-09-09T04:18:19;15.50;99.90
40600;DHT22;26309;50.924;4.754;2022-09-09T04:20:49;15.40;99.90
40600;DHT22;26309;50.924;4.754;2022-09-09T04:23:17;15.50;99.90
40600;DHT22;26309;50.924;4.754;2022-09-09T04:25:50;15.40;99.90
40600;DHT22;26309;50.924;4.754;2022-09-09T04:28:18;15.40;99.90
40600;DHT22;26309;50.924;4.754;2022-09-09T04:30:45;15.40;99.90
40600;DHT22;26309;50.924;4.754;2022-09-09T04:33:12;15.40;99.90
40600;DHT22;26309;50.924;4.754;2022-09-09T04:35:39;15.50;99.90
40600;DHT22;26309;50.924;4.754;2022-09-09T04:38:09;15.50;99.90
40600;DHT22;26309;50.924;4.754;2022-09-09T04:40:35;15.50;99.90
40600;DHT22;26309;50.924;4.754;2022-09-09T04:43:02;15.60;99.90
40600;DHT22;26309;50.924;4.754;2022-09-09T04:45:31;15.60;99.90
40600;DHT22;26309;50.924;4.754;2022-09-09T04:47:57;15.60;99.90
40600;DHT22;26309;50.924;4.754;2022-09-09T04:50:23;15.60;99.90
40600;DHT22;26309;50.924;4.754;2022-09-09T04:52:50;15.70;99.90
40600;DHT22;26309;50.924;4.754;2022-09-09T04:55:16;15.60;99.90
40600;DHT22;26309;50.924;4.754;2022-09-09T04:57:42;15.60;99.90
40600;DHT22;26309;50.924;4.754;2022-09-09T05:00:08;15.60;99.90
40600;DHT22;26309;50.924;4.754;2022-09-09T05:02:39;15.60;99.90
40600;DHT22;26309;50.924;4.754;2022-09-09T05:05:05;15.50;99.90
40600;DHT22;26309;50.924;4.754;2022-09-09T05:07:31;15.50;99.90
40600;DHT22;26309;50.924;4.754;2022-09-09T05:09:57;15.70;99.90
40600;DHT22;26309;50.924;4.754;2022-09-09T05:12:24;15.70;99.90
40600;DHT22;26309;50.924;4.754;2022-09-09T05:14:52;15.70;99.90
40600;DHT22;26309;50.924;4.754;2022-09-09T05:17:18;15.60;99.90
40600;DHT22;26309;50.924;4.754;2022-09-09T05:19:44;15.60;99.90
40600;DHT22;26309;50.924;4.754;2022-09-09T05:22:13;15.60;99.90
40600;DHT22;26309;50.924;4.754;2022-09-09T05:24:38;15.60;99.90
40600;DHT22;26309;50.924;4.754;2022-09-09T05:27:05;15.60;99.90
40600;DHT22;26309;50.924;4.754;2022-09-09T05:29:32;15.50;99.90
40600;DHT22;26309;50.924;4.754;2022-09-09T05:31:59;15.50;99.90
40600;DHT22;26309;50.924;4.754;2022-09-09T05:34:25;15.60;99.90
40600;DHT22;26309;50.924;4.754;2022-09-09T05:36:51;15.60;99.90
40600;DHT22;26309;50.924;4.754;2022-09-09T05:39:18;15.70;99.90
40600;DHT22;26309;50.924;4.754;2022-09-09T05:41:44;15.80;99.90
40600;DHT22;26309;50.924;4.754;2022-09-09T05:44:10;15.90;99.90
40600;DHT22;26309;50.924;4.754;2022-09-09T05:46:39;15.90;99.90
40600;DHT22;26309;50.924;4.754;2022-09-09T05:49:05;16.00;99.90
40600;DHT22;26309;50.924;4.754;2022-09-09T05:51:31;16.10;99.90
40600;DHT22;26309;50.924;4.754;2022-09-09T05:53:58;16.20;99.90
40600;DHT22;26309;50.924;4.754;2022-09-09T05:56:26;16.30;99.90
40600;DHT22;26309;50.924;4.754;2022-09-09T05:58:53;16.40;99.90
40600;DHT22;26309;50.924;4.754;2022-09-09T06:01:26;16.60;99.90
40600;DHT22;26309;50.924;4.754;2022-09-09T06:03:53;16.70;99.90
40600;DHT22;26309;50.924;4.754;2022-09-09T06:06:24;16.90;99.90
40600;DHT22;26309;50.924;4.754;2022-09-09T06:08:55;17.00;99.90
40600;DHT22;26309;50.924;4.754;2022-09-09T06:11:29;17.10;99.90
40600;DHT22;26309;50.924;4.754;2022-09-09T06:13:58;17.30;99.90
40600;DHT22;26309;50.924;4.754;2022-09-09T06:16:26;17.30;99.90
40600;DHT22;26309;50.924;4.754;2022-09-09T06:18:54;17.40;99.90
40600;DHT22;26309;50.924;4.754;2022-09-09T06:21:25;17.30;99.90
40600;DHT22;26309;50.924;4.754;2022-09-09T06:23:51;17.30;99.90
40600;DHT22;26309;50.924;4.754;2022-09-09T06:26:22;17.30;99.90
40600;DHT22;26309;50.924;4.754;2022-09-09T06:28:52;17.30;99.90
40600;DHT22;26309;50.924;4.754;2022-09-09T06:31:21;17.30;99.90
40600;DHT22;26309;50.924;4.754;2022-09-09T06:33:48;17.20;99.90
40600;DHT22;26309;50.924;4.754;2022-09-09T06:36:17;17.20;99.90
40600;DHT22;26309;50.924;4.754;2022-09-09T06:38:44;17.30;99.90
40600;DHT22;26309;50.924;4.754;2022-09-09T06:41:12;17.30;99.90
40600;DHT22;26309;50.924;4.754;2022-09-09T06:43:38;17.30;99.90
40600;DHT22;26309;50.924;4.754;2022-09-09T06:46:05;17.30;99.90
40600;DHT22;26309;50.924;4.754;2022-09-09T06:48:32;17.30;99.90
40600;DHT22;26309;50.924;4.754;2022-09-09T06:51:10;17.30;99.90
40600;DHT22;26309;50.924;4.754;2022-09-09T06:53:40;17.40;99.90
40600;DHT22;26309;50.924;4.754;2022-09-09T06:56:26;17.60;99.90
40600;DHT22;26309;50.924;4.754;2022-09-09T06:58:54;17.90;99.90
40600;DHT22;26309;50.924;4.754;2022-09-09T07:01:29;18.00;99.90
40600;DHT22;26309;50.924;4.754;2022-09-09T07:03:57;18.10;99.90
40600;DHT22;26309;50.924;4.754;2022-09-09T07:06:38;18.10;99.90
40600;DHT22;26309;50.924;4.754;2022-09-09T07:09:07;18.10;99.90
40600;DHT22;26309;50.924;4.754;2022-09-09T07:11:38;18.20;99.90
40600;DHT22;26309;50.924;4.754;2022-09-09T07:14:04;18.10;99.90
40600;DHT22;26309;50.924;4.754;2022-09-09T07:16:33;18.10;99.90
40600;DHT22;26309;50.924;4.754;2022-09-09T07:19:00;18.10;99.90
40600;DHT22;26309;50.924;4.754;2022-09-09T07:21:30;18.10;99.90
40600;DHT22;26309;50.924;4.754;2022-09-09T07:23:57;18.10;99.90
40600;DHT22;26309;50.924;4.754;2022-09-09T07:26:25;18.20;99.90
40600;DHT22;26309;50.924;4.754;2022-09-09T07:28:51;18.10;99.90
40600;DHT22;26309;50.924;4.754;2022-09-09T07:31:28;18.10;99.90
40600;DHT22;26309;50.924;4.754;2022-09-09T07:33:56;18.20;99.90
40600;DHT22;26309;50.924;4.754;2022-09-09T07:36:27;18.20;99.90
40600;DHT22;26309;50.924;4.754;2022-09-09T07:38:55;18.20;99.90
40600;DHT22;26309;50.924;4.754;2022-09-09T07:41:24;18.30;99.90
40600;DHT22;26309;50.924;4.754;2022-09-09T07:43:52;18.30;99.90
40600;DHT22;26309;50.924;4.754;2022-09-09T07:46:21;18.20;99.90
40600;DHT22;26309;50.924;4.754;2022-09-09T07:48:55;18.20;99.90
40600;DHT22;26309;50.924;4.754;2022-09-09T07:51:24;18.20;99.90
40600;DHT22;26309;50.924;4.754;2022-09-09T07:53:57;18.20;99.90
40600;DHT22;26309;50.924;4.754;2022-09-09T07:56:25;18.20;99.90
40600;DHT22;26309;50.924;4.754;2022-09-09T07:58:53;18.20;99.90
40600;DHT22;26309;50.924;4.754;2022-09-09T08:01:26;18.30;99.90
40600;DHT22;26309;50.924;4.754;2022-09-09T08:04:01;18.20;99.90
40600;DHT22;26309;50.924;4.754;2022-09-09T08:06:29;18.20;99.90
40600;DHT22;26309;50.924;4.754;2022-09-09T08:08:56;18.30;99.90
40600;DHT22;26309;50.924;4.754;2022-09-09T08:11:24;18.40;99.90
40600;DHT22;26309;50.924;4.754;2022-09-09T08:13:51;18.50;99.90
40600;DHT22;26309;50.924;4.754;2022-09-09T08:16:21;18.60;99.90
40600;DHT22;26309;50.924;4.754;2022-09-09T08:18:48;18.60;99.90
40600;DHT22;26309;50.924;4.754;2022-09-09T08:21:26;18.70;99.90
40600;DHT22;26309;50.924;4.754;2022-09-09T08:23:54;18.80;99.90
40600;DHT22;26309;50.924;4.754;2022-09-09T08:26:29;18.90;99.90
40600;DHT22;26309;50.924;4.754;2022-09-09T08:28:57;18.90;99.90
40600;DHT22;26309;50.924;4.754;2022-09-09T08:31:25;18.90;99.90
40600;DHT22;26309;50.924;4.754;2022-09-09T08:33:52;19.10;99.90
40600;DHT22;26309;50.924;4.754;2022-09-09T08:36:20;19.30;99.90
40600;DHT22;26309;50.924;4.754;2022-09-09T08:38:50;19.40;99.90
40600;DHT22;26309;50.924;4.754;2022-09-09T08:44:31;19.80;99.90
40600;DHT22;26309;50.924;4.754;2022-09-09T08:52:27;19.90;99.90
40600;DHT22;26309;50.924;4.754;2022-09-09T08:55:01;19.90;99.90
40600;DHT22;26309;50.924;4.754;2022-09-09T08:57:31;19.70;99.90
40600;DHT22;26309;50.924;4.754;2022-09-09T08:59:58;19.70;99.90
40600;DHT22;26309;50.924;4.754;2022-09-09T09:02:32;19.70;99.90
40600;DHT22;26309;50.924;4.754;2022-09-09T09:05:20;19.50;99.90
40600;DHT22;26309;50.924;4.754;2022-09-09T09:07:59;19.50;99.90
40600;DHT22;26309;50.924;4.754;2022-09-09T09:10:49;19.40;99.90
40600;DHT22;26309;50.924;4.754;2022-09-09T09:13:46;19.30;99.90
40600;DHT22;26309;50.924;4.754;2022-09-09T09:16:16;19.40;99.90
40600;DHT22;26309;50.924;4.754;2022-09-09T09:18:43;19.20;99.90
40600;DHT22;26309;50.924;4.754;2022-09-09T09:21:18;19.10;99.90
40600;DHT22;26309;50.924;4.754;2022-09-09T09:23:58;19.00;99.90
40600;DHT22;26309;50.924;4.754;2022-09-09T09:26:30;19.00;99.90
40600;DHT22;26309;50.924;4.754;2022-09-09T09:28:59;18.90;99.90
40600;DHT22;26309;50.924;4.754;2022-09-09T09:31:28;19.00;99.90
40600;DHT22;26309;50.924;4.754;2022-09-09T09:33:55;19.10;99.90
40600;DHT22;26309;50.924;4.754;2022-09-09T09:36:34;19.10;99.90
40600;DHT22;26309;50.924;4.754;2022-09-09T09:39:02;19.10;99.90
40600;DHT22;26309;50.924;4.754;2022-09-09T09:41:41;19.00;99.90
40600;DHT22;26309;50.924;4.754;2022-09-09T09:44:26;19.00;99.90
40600;DHT22;26309;50.924;4.754;2022-09-09T09:46:52;19.10;99.90
40600;DHT22;26309;50.924;4.754;2022-09-09T09:49:19;19.10;99.90
40600;DHT22;26309;50.924;4.754;2022-09-09T09:51:44;19.10;99.90
40600;DHT22;26309;50.924;4.754;2022-09-09T09:54:18;19.20;99.90
40600;DHT22;26309;50.924;4.754;2022-09-09T09:56:47;19.20;99.90
40600;DHT22;26309;50.924;4.754;2022-09-09T09:59:39;19.30;99.90
40600;DHT22;26309;50.924;4.754;2022-09-09T10:02:24;19.20;99.90
40600;DHT22;26309;50.924;4.754;2022-09-09T10:05:04;19.10;99.90
40600;DHT22;26309;50.924;4.754;2022-09-09T10:07:30;19.10;99.90
40600;DHT22;26309;50.924;4.754;2022-09-09T10:09:57;18.90;99.90
40600;DHT22;26309;50.924;4.754;2022-09-09T10:12:36;19.00;99.90
40600;DHT22;26309;50.924;4.754;2022-09-09T10:23:34;19.10;99.90
40600;DHT22;26309;50.924;4.754;2022-09-09T10:37:54;19.20;99.90
40600;DHT22;26309;50.924;4.754;2022-09-09T10:40:43;19.30;99.90
40600;DHT22;26309;50.924;4.754;2022-09-09T10:43:19;19.30;99.90
40600;DHT22;26309;50.924;4.754;2022-09-09T10:52:05;19.60;99.90
40600;DHT22;26309;50.924;4.754;2022-09-09T10:59:50;19.70;99.90
40600;DHT22;26309;50.924;4.754;2022-09-09T11:02:26;19.80;99.90
40600;DHT22;26309;50.924;4.754;2022-09-09T11:07:52;20.00;99.90
40600;DHT22;26309;50.924;4.754;2022-09-09T11:16:32;20.30;99.90
40600;DHT22;26309;50.924;4.754;2022-09-09T11:18:58;20.40;99.90
40600;DHT22;26309;50.924;4.754;2022-09-09T11:21:33;20.60;99.90
40600;DHT22;26309;50.924;4.754;2022-09-09T11:24:09;20.80;99.90
40600;DHT22;26309;50.924;4.754;2022-09-09T11:27:02;21.00;99.90
40600;DHT22;26309;50.924;4.754;2022-09-09T11:29:52;21.20;99.90
40600;DHT22;26309;50.924;4.754;2022-09-09T11:32:53;21.40;99.90
40600;DHT22;26309;50.924;4.754;2022-09-09T11:41:02;21.90;99.90
40600;DHT22;26309;50.924;4.754;2022-09-09T11:43:49;22.00;99.90
40600;DHT22;26309;50.924;4.754;2022-09-09T11:46:33;22.10;99.90
40600;DHT22;26309;50.924;4.754;2022-09-09T11:49:05;22.40;99.90
40600;DHT22;26309;50.924;4.754;2022-09-09T11:51:33;22.70;99.90
40600;DHT22;26309;50.924;4.754;2022-09-09T11:56:51;22.80;99.90
40600;DHT22;26309;50.924;4.754;2022-09-09T11:59:31;22.80;99.90
40600;DHT22;26309;50.924;4.754;2022-09-09T12:04:40;22.30;99.90
40600;DHT22;26309;50.924;4.754;2022-09-09T12:09:43;22.00;99.90
40600;DHT22;26309;50.924;4.754;2022-09-09T12:14:55;21.80;99.90
40600;DHT22;26309;50.924;4.754;2022-09-09T12:17:23;21.90;99.90
40600;DHT22;26309;50.924;4.754;2022-09-09T12:20:17;21.90;99.90
40600;DHT22;26309;50.924;4.754;2022-09-09T12:22:55;21.90;99.90
40600;DHT22;26309;50.924;4.754;2022-09-09T12:31:17;22.20;99.90
40600;DHT22;26309;50.924;4.754;2022-09-09T12:33:45;22.10;99.90
40600;DHT22;26309;50.924;4.754;2022-09-09T12:36:16;22.10;99.90
40600;DHT22;26309;50.924;4.754;2022-09-09T12:38:44;22.20;99.90
40600;DHT22;26309;50.924;4.754;2022-09-09T12:41:29;22.20;99.90
40600;DHT22;26309;50.924;4.754;2022-09-09T12:44:05;22.00;99.90
40600;DHT22;26309;50.924;4.754;2022-09-09T12:46:39;21.80;99.90
40600;DHT22;26309;50.924;4.754;2022-09-09T12:49:30;21.90;99.90
40600;DHT22;26309;50.924;4.754;2022-09-09T12:52:25;22.10;99.90
40600;DHT22;26309;50.924;4.754;2022-09-09T12:54:52;22.30;99.90
40600;DHT22;26309;50.924;4.754;2022-09-09T12:57:21;22.30;99.90
40600;DHT22;26309;50.924;4.754;2022-09-09T12:59:48;22.20;99.90
40600;DHT22;26309;50.924;4.754;2022-09-09T13:02:21;22.10;99.90
40600;DHT22;26309;50.924;4.754;2022-09-09T13:04:48;21.90;99.90
40600;DHT22;26309;50.924;4.754;2022-09-09T13:07:17;21.80;99.90
40600;DHT22;26309;50.924;4.754;2022-09-09T13:09:44;21.70;99.90
40600;DHT22;26309;50.924;4.754;2022-09-09T13:12:15;21.80;99.90
40600;DHT22;26309;50.924;4.754;2022-09-09T13:14:44;22.10;99.90
40600;DHT22;26309;50.924;4.754;2022-09-09T13:17:21;22.40;99.90
40600;DHT22;26309;50.924;4.754;2022-09-09T13:19:48;22.70;99.40
40600;DHT22;26309;50.924;4.754;2022-09-09T13:22:29;22.70;99.10
40600;DHT22;26309;50.924;4.754;2022-09-09T13:25:06;22.60;98.70
40600;DHT22;26309;50.924;4.754;2022-09-09T13:27:51;22.60;98.40
40600;DHT22;26309;50.924;4.754;2022-09-09T13:38:25;23.40;97.60
40600;DHT22;26309;50.924;4.754;2022-09-09T13:43:51;23.50;96.60
40600;DHT22;26309;50.924;4.754;2022-09-09T13:46:35;23.60;96.20
40600;DHT22;26309;50.924;4.754;2022-09-09T13:54:11;23.50;96.80
40600;DHT22;26309;50.924;4.754;2022-09-09T13:56:39;23.70;96.70
40600;DHT22;26309;50.924;4.754;2022-09-09T13:59:13;23.60;95.80
40600;DHT22;26309;50.924;4.754;2022-09-09T14:01:39;23.40;96.00
40600;DHT22;26309;50.924;4.754;2022-09-09T14:04:06;23.30;96.30
40600;DHT22;26309;50.924;4.754;2022-09-09T14:06:37;23.30;96.30
40600;DHT22;26309;50.924;4.754;2022-09-09T14:09:11;23.30;96.20
40600;DHT22;26309;50.924;4.754;2022-09-09T14:11:37;23.30;95.90
40600;DHT22;26309;50.924;4.754;2022-09-09T14:14:03;23.30;95.50
40600;DHT22;26309;50.924;4.754;2022-09-09T14:16:30;23.30;95.40
40600;DHT22;26309;50.924;4.754;2022-09-09T14:18:56;23.30;95.50
40600;DHT22;26309;50.924;4.754;2022-09-09T14:21:24;23.80;95.50
40600;DHT22;26309;50.924;4.754;2022-09-09T14:23:50;24.40;94.60
40600;DHT22;26309;50.924;4.754;2022-09-09T14:26:18;24.50;93.30
40600;DHT22;26309;50.924;4.754;2022-09-09T14:28:46;24.20;93.50
40600;DHT22;26309;50.924;4.754;2022-09-09T14:31:13;24.00;93.20
40600;DHT22;26309;50.924;4.754;2022-09-09T14:33:40;23.90;93.50
40600;DHT22;26309;50.924;4.754;2022-09-09T14:36:08;24.00;93.80
40600;DHT22;26309;50.924;4.754;2022-09-09T14:38:36;24.40;93.50
40600;DHT22;26309;50.924;4.754;2022-09-09T14:41:17;24.40;92.70
40600;DHT22;26309;50.924;4.754;2022-09-09T14:43:43;24.00;93.00
40600;DHT22;26309;50.924;4.754;2022-09-09T14:46:12;23.70;93.20
40600;DHT22;26309;50.924;4.754;2022-09-09T14:48:38;23.40;93.60
40600;DHT22;26309;50.924;4.754;2022-09-09T14:51:11;23.00;94.10
40600;DHT22;26309;50.924;4.754;2022-09-09T14:53:39;22.80;94.70
40600;DHT22;26309;50.924;4.754;2022-09-09T14:56:06;22.70;95.00
40600;DHT22;26309;50.924;4.754;2022-09-09T14:58:34;22.70;95.40
40600;DHT22;26309;50.924;4.754;2022-09-09T15:01:05;22.70;95.40
40600;DHT22;26309;50.924;4.754;2022-09-09T15:03:32;22.70;95.00
40600;DHT22;26309;50.924;4.754;2022-09-09T15:05:58;23.10;95.40
40600;DHT22;26309;50.924;4.754;2022-09-09T15:08:24;23.90;94.90
40600;DHT22;26309;50.924;4.754;2022-09-09T15:10:59;24.50;93.20
40600;DHT22;26309;50.924;4.754;2022-09-09T15:13:25;24.60;92.90
40600;DHT22;26309;50.924;4.754;2022-09-09T15:15:51;24.70;92.60
40600;DHT22;26309;50.924;4.754;2022-09-09T15:18:17;24.70;91.90
40600;DHT22;26309;50.924;4.754;2022-09-09T15:20:46;24.80;92.10
40600;DHT22;26309;50.924;4.754;2022-09-09T15:23:17;25.60;92.00
40600;DHT22;26309;50.924;4.754;2022-09-09T15:25:55;26.30;90.30
40600;DHT22;26309;50.924;4.754;2022-09-09T15:28:22;26.50;89.10
40600;DHT22;26309;50.924;4.754;2022-09-09T15:30:49;26.40;89.60
40600;DHT22;26309;50.924;4.754;2022-09-09T15:33:15;26.70;88.90
40600;DHT22;26309;50.924;4.754;2022-09-09T15:35:42;26.70;88.00
40600;DHT22;26309;50.924;4.754;2022-09-09T15:38:08;27.10;84.60
40600;DHT22;26309;50.924;4.754;2022-09-09T15:40:33;27.10;82.60
40600;DHT22;26309;50.924;4.754;2022-09-09T15:42:59;26.60;82.40
40600;DHT22;26309;50.924;4.754;2022-09-09T15:45:26;26.80;82.50
40600;DHT22;26309;50.924;4.754;2022-09-09T15:47:52;27.00;80.20
40600;DHT22;26309;50.924;4.754;2022-09-09T15:50:18;26.60;80.10
40600;DHT22;26309;50.924;4.754;2022-09-09T15:52:44;26.10;82.20
40600;DHT22;26309;50.924;4.754;2022-09-09T15:55:10;26.40;81.70
40600;DHT22;26309;50.924;4.754;2022-09-09T15:57:36;25.90;80.90
40600;DHT22;26309;50.924;4.754;2022-09-09T16:00:03;25.00;83.80
40600;DHT22;26309;50.924;4.754;2022-09-09T16:02:29;24.30;86.60
40600;DHT22;26309;50.924;4.754;2022-09-09T16:04:56;23.80;88.60
40600;DHT22;26309;50.924;4.754;2022-09-09T16:07:22;23.40;90.20
40600;DHT22;26309;50.924;4.754;2022-09-09T16:09:48;23.00;90.60
40600;DHT22;26309;50.924;4.754;2022-09-09T16:12:16;22.90;91.60
40600;DHT22;26309;50.924;4.754;2022-09-09T16:14:42;22.80;92.10
40600;DHT22;26309;50.924;4.754;2022-09-09T16:17:08;22.80;92.10
40600;DHT22;26309;50.924;4.754;2022-09-09T16:19:34;22.80;92.20
40600;DHT22;26309;50.924;4.754;2022-09-09T16:22:00;23.00;92.30
40600;DHT22;26309;50.924;4.754;2022-09-09T16:24:26;23.10;92.40
40600;DHT22;26309;50.924;4.754;2022-09-09T16:27:45;22.90;92.60
40600;DHT22;26309;50.924;4.754;2022-09-09T16:30:59;22.80;92.70
40600;DHT22;26309;50.924;4.754;2022-09-09T16:33:29;22.30;93.40
40600;DHT22;26309;50.924;4.754;2022-09-09T16:35:55;22.10;93.70
40600;DHT22;26309;50.924;4.754;2022-09-09T16:38:21;21.90;94.10
40600;DHT22;26309;50.924;4.754;2022-09-09T16:40:47;21.80;94.10
40600;DHT22;26309;50.924;4.754;2022-09-09T16:43:15;21.60;94.20
40600;DHT22;26309;50.924;4.754;2022-09-09T16:45:42;21.60;94.80
40600;DHT22;26309;50.924;4.754;2022-09-09T16:48:09;21.40;95.10
40600;DHT22;26309;50.924;4.754;2022-09-09T16:50:35;21.20;96.00
40600;DHT22;26309;50.924;4.754;2022-09-09T16:53:01;21.10;96.10
40600;DHT22;26309;50.924;4.754;2022-09-09T16:55:31;21.00;96.20
40600;DHT22;26309;50.924;4.754;2022-09-09T16:57:57;21.00;96.60
40600;DHT22;26309;50.924;4.754;2022-09-09T17:00:23;20.90;97.10
40600;DHT22;26309;50.924;4.754;2022-09-09T17:02:49;20.80;98.70
40600;DHT22;26309;50.924;4.754;2022-09-09T17:05:15;20.40;99.50
40600;DHT22;26309;50.924;4.754;2022-09-09T17:07:40;20.10;99.80
40600;DHT22;26309;50.924;4.754;2022-09-09T17:10:07;20.00;99.90
40600;DHT22;26309;50.924;4.754;2022-09-09T17:12:33;19.90;99.90
40600;DHT22;26309;50.924;4.754;2022-09-09T17:15:01;19.80;99.90
40600;DHT22;26309;50.924;4.754;2022-09-09T17:17:28;19.80;99.90
40600;DHT22;26309;50.924;4.754;2022-09-09T17:19:54;19.70;99.90
40600;DHT22;26309;50.924;4.754;2022-09-09T17:22:20;19.60;99.90
40600;DHT22;26309;50.924;4.754;2022-09-09T17:24:47;19.60;99.90
40600;DHT22;26309;50.924;4.754;2022-09-09T17:27:13;19.60;99.90
40600;DHT22;26309;50.924;4.754;2022-09-09T17:29:39;19.70;99.90
40600;DHT22;26309;50.924;4.754;2022-09-09T17:32:06;19.70;99.90
40600;DHT22;26309;50.924;4.754;2022-09-09T17:34:33;19.70;99.90
40600;DHT22;26309;50.924;4.754;2022-09-09T17:36:59;19.70;99.90
40600;DHT22;26309;50.924;4.754;2022-09-09T17:39:25;19.70;99.90
40600;DHT22;26309;50.924;4.754;2022-09-09T17:41:51;19.60;99.90
40600;DHT22;26309;50.924;4.754;2022-09-09T17:44:18;19.50;99.90
40600;DHT22;26309;50.924;4.754;2022-09-09T17:46:45;19.50;99.90
40600;DHT22;26309;50.924;4.754;2022-09-09T17:49:15;19.50;99.90
40600;DHT22;26309;50.924;4.754;2022-09-09T17:51:44;19.40;99.90
40600;DHT22;26309;50.924;4.754;2022-09-09T17:54:16;19.40;99.90
40600;DHT22;26309;50.924;4.754;2022-09-09T17:56:42;19.20;99.90
40600;DHT22;26309;50.924;4.754;2022-09-09T17:59:10;19.20;99.90
40600;DHT22;26309;50.924;4.754;2022-09-09T18:01:40;19.10;99.90
40600;DHT22;26309;50.924;4.754;2022-09-09T18:04:08;19.00;99.90